sensor_id;sensor_type;location;lat;lon;timestamp;pressure;altitude;pressure_sealevel;temperature;humidity
818;BME280;391;51.052;6.954;2023-04-09T00:00:30;101836.41;;;10.36;80.04
818;BME280;391;51.052;6.954;2023-04-09T00:02:35;101844.00;;;10.32;79.92
818;BME280;391;51.052;6.954;2023-04-09T00:04:39;101847.50;;;10.32;79.34
818;BME280;391;51.052;6.954;2023-04-09T00:06:42;101852.72;;;10.32;79.94
818;BME280;391;51.052;6.954;2023-04-09T00:08:46;101842.00;;;10.26;79.77
818;BME280;391;51.052;6.954;2023-04-09T00:10:50;101839.75;;;10.16;79.72
818;BME280;391;51.052;6.954;2023-04-09T00:12:53;101836.53;;;9.86;79.92
818;BME280;391;51.052;6.954;2023-04-09T00:14:57;101843.19;;;9.64;79.97
818;BME280;391;51.052;6.954;2023-04-09T00:17:00;101836.41;;;9.49;80.43
818;BME280;391;51.052;6.954;2023-04-09T00:19:05;101835.31;;;9.44;80.71
818;BME280;391;51.052;6.954;2023-04-09T00:21:08;101843.56;;;9.53;80.51
818;BME280;391;51.052;6.954;2023-04-09T00:23:12;101784.25;;;9.30;80.72
818;BME280;391;51.052;6.954;2023-04-09T00:25:15;101836.13;;;9.61;80.42
818;BME280;391;51.052;6.954;2023-04-09T00:27:19;101838.81;;;9.63;80.53
818;BME280;391;51.052;6.954;2023-04-09T00:29:22;101838.97;;;9.66;80.25
818;BME280;391;51.052;6.954;2023-04-09T00:31:26;101837.47;;;9.71;80.53
818;BME280;391;51.052;6.954;2023-04-09T00:33:29;101827.75;;;9.67;80.69
818;BME280;391;51.052;6.954;2023-04-09T00:35:34;101820.59;;;9.63;80.26
818;BME280;391;51.052;6.954;2023-04-09T00:37:37;101828.72;;;9.69;80.49
818;BME280;391;51.052;6.954;2023-04-09T00:39:41;101833.66;;;9.64;80.54
818;BME280;391;51.052;6.954;2023-04-09T00:41:44;101820.94;;;9.52;80.55
818;BME280;391;51.052;6.954;2023-04-09T00:43:48;101831.75;;;9.60;80.26
818;BME280;391;51.052;6.954;2023-04-09T00:45:51;101834.41;;;9.62;80.55
818;BME280;391;51.052;6.954;2023-04-09T00:47:55;101822.16;;;9.59;80.38
818;BME280;391;51.052;6.954;2023-04-09T00:49:59;101818.66;;;9.58;80.07
818;BME280;391;51.052;6.954;2023-04-09T00:52:04;101829.38;;;9.65;80.37
818;BME280;391;51.052;6.954;2023-04-09T00:54:08;101824.91;;;9.62;80.35
818;BME280;391;51.052;6.954;2023-04-09T00:56:12;101819.53;;;9.59;80.46
818;BME280;391;51.052;6.954;2023-04-09T00:58:17;101822.00;;;9.56;79.93
818;BME280;391;51.052;6.954;2023-04-09T01:00:20;101822.91;;;9.56;79.99
818;BME280;391;51.052;6.954;2023-04-09T01:02:25;101819.31;;;9.54;80.18
818;BME280;391;51.052;6.954;2023-04-09T01:04:29;101821.44;;;9.45;80.48
818;BME280;391;51.052;6.954;2023-04-09T01:06:38;101828.66;;;9.51;80.38
818;BME280;391;51.052;6.954;2023-04-09T01:08:50;101822.50;;;9.49;80.24
818;BME280;391;51.052;6.954;2023-04-09T01:11:02;101828.00;;;9.21;80.24
818;BME280;391;51.052;6.954;2023-04-09T01:13:14;101821.50;;;8.97;80.92
818;BME280;391;51.052;6.954;2023-04-09T01:15:22;101812.34;;;8.87;81.12
818;BME280;391;51.052;6.954;2023-04-09T01:17:32;101815.25;;;8.93;81.20
818;BME280;391;51.052;6.954;2023-04-09T01:19:43;101814.78;;;8.84;81.19
818;BME280;391;51.052;6.954;2023-04-09T01:21:48;101817.97;;;8.79;81.23
818;BME280;391;51.052;6.954;2023-04-09T01:24:01;101813.66;;;8.79;81.61
818;BME280;391;51.052;6.954;2023-04-09T01:26:23;101812.03;;;8.81;81.62
818;BME280;391;51.052;6.954;2023-04-09T01:28:36;101815.84;;;8.72;81.50
818;BME280;391;51.052;6.954;2023-04-09T01:30:44;101813.50;;;8.60;82.37
818;BME280;391;51.052;6.954;2023-04-09T01:32:50;101812.41;;;8.57;82.42
818;BME280;391;51.052;6.954;2023-04-09T01:34:54;101811.94;;;8.47;82.28
818;BME280;391;51.052;6.954;2023-04-09T01:37:01;101815.16;;;8.43;82.95
818;BME280;391;51.052;6.954;2023-04-09T01:39:05;101814.44;;;8.46;82.80
818;BME280;391;51.052;6.954;2023-04-09T01:41:11;101817.19;;;8.49;82.92
818;BME280;391;51.052;6.954;2023-04-09T01:43:17;101814.38;;;8.44;82.93
818;BME280;391;51.052;6.954;2023-04-09T01:45:22;101803.31;;;8.32;83.23
818;BME280;391;51.052;6.954;2023-04-09T01:47:26;101812.72;;;8.46;82.91
818;BME280;391;51.052;6.954;2023-04-09T01:49:30;101815.59;;;8.51;82.78
818;BME280;391;51.052;6.954;2023-04-09T01:51:35;101810.97;;;8.45;83.03
818;BME280;391;51.052;6.954;2023-04-09T01:53:39;101821.34;;;8.45;83.30
818;BME280;391;51.052;6.954;2023-04-09T01:55:42;101817.59;;;8.40;83.20
818;BME280;391;51.052;6.954;2023-04-09T01:57:46;101815.31;;;8.46;83.25
818;BME280;391;51.052;6.954;2023-04-09T01:59:49;101700.19;;;7.84;83.37
818;BME280;391;51.052;6.954;2023-04-09T02:01:59;101809.91;;;8.58;83.68
818;BME280;391;51.052;6.954;2023-04-09T02:04:08;101808.94;;;8.72;83.69
818;BME280;391;51.052;6.954;2023-04-09T02:06:15;101812.91;;;8.82;83.34
818;BME280;391;51.052;6.954;2023-04-09T02:08:20;101813.25;;;8.88;82.81
818;BME280;391;51.052;6.954;2023-04-09T02:10:26;101812.75;;;8.95;82.86
818;BME280;391;51.052;6.954;2023-04-09T02:12:32;101812.16;;;9.00;82.90
818;BME280;391;51.052;6.954;2023-04-09T02:14:39;101810.00;;;8.92;82.74
818;BME280;391;51.052;6.954;2023-04-09T02:16:43;101805.91;;;8.81;82.53
818;BME280;391;51.052;6.954;2023-04-09T02:18:53;101813.00;;;8.83;82.99
818;BME280;391;51.052;6.954;2023-04-09T02:21:06;101809.66;;;8.86;83.03
818;BME280;391;51.052;6.954;2023-04-09T02:23:09;101805.44;;;8.88;82.62
818;BME280;391;51.052;6.954;2023-04-09T02:25:13;101808.03;;;8.88;82.72
818;BME280;391;51.052;6.954;2023-04-09T02:27:17;101809.19;;;8.77;82.63
818;BME280;391;51.052;6.954;2023-04-09T02:29:20;101808.78;;;8.69;82.71
818;BME280;391;51.052;6.954;2023-04-09T02:31:24;101799.25;;;8.54;82.64
818;BME280;391;51.052;6.954;2023-04-09T02:33:27;101804.59;;;8.40;83.03
818;BME280;391;51.052;6.954;2023-04-09T02:35:32;101805.63;;;8.28;83.24
818;BME280;391;51.052;6.954;2023-04-09T02:37:35;101796.41;;;8.18;83.56
818;BME280;391;51.052;6.954;2023-04-09T02:39:39;101801.34;;;8.14;83.61
818;BME280;391;51.052;6.954;2023-04-09T02:41:42;101796.72;;;8.08;83.94
818;BME280;391;51.052;6.954;2023-04-09T02:43:46;101795.75;;;8.06;84.07
818;BME280;391;51.052;6.954;2023-04-09T02:45:49;101798.22;;;8.05;84.18
818;BME280;391;51.052;6.954;2023-04-09T02:47:54;101797.28;;;8.03;84.48
818;BME280;391;51.052;6.954;2023-04-09T02:49:57;101795.41;;;8.00;84.28
818;BME280;391;51.052;6.954;2023-04-09T02:52:04;101788.97;;;7.93;84.51
818;BME280;391;51.052;6.954;2023-04-09T02:54:07;101794.78;;;7.89;84.49
818;BME280;391;51.052;6.954;2023-04-09T02:56:11;101790.31;;;7.87;84.64
818;BME280;391;51.052;6.954;2023-04-09T02:58:14;101789.25;;;7.83;85.00
818;BME280;391;51.052;6.954;2023-04-09T03:00:18;101786.38;;;7.79;84.90
818;BME280;391;51.052;6.954;2023-04-09T03:02:21;101792.25;;;7.75;85.01
818;BME280;391;51.052;6.954;2023-04-09T03:04:25;101781.03;;;7.76;85.08
818;BME280;391;51.052;6.954;2023-04-09T03:06:28;101787.38;;;7.81;84.75
818;BME280;391;51.052;6.954;2023-04-09T03:08:33;101777.06;;;7.82;84.92
818;BME280;391;51.052;6.954;2023-04-09T03:10:36;101778.34;;;7.74;85.05
818;BME280;391;51.052;6.954;2023-04-09T03:12:40;101777.00;;;7.81;84.56
818;BME280;391;51.052;6.954;2023-04-09T03:14:45;101775.94;;;7.77;84.81
818;BME280;391;51.052;6.954;2023-04-09T03:16:49;101756.97;;;7.64;84.85
818;BME280;391;51.052;6.954;2023-04-09T03:18:52;101778.31;;;7.89;85.13
818;BME280;391;51.052;6.954;2023-04-09T03:20:56;101775.81;;;7.90;84.47
818;BME280;391;51.052;6.954;2023-04-09T03:23:01;101782.06;;;7.94;84.55
818;BME280;391;51.052;6.954;2023-04-09T03:25:15;101742.53;;;7.83;84.33
818;BME280;391;51.052;6.954;2023-04-09T03:27:21;101766.91;;;8.02;84.09
818;BME280;391;51.052;6.954;2023-04-09T03:29:28;101767.50;;;8.12;84.01
818;BME280;391;51.052;6.954;2023-04-09T03:31:32;101766.88;;;8.16;83.74
818;BME280;391;51.052;6.954;2023-04-09T03:33:35;101766.59;;;8.12;83.74
818;BME280;391;51.052;6.954;2023-04-09T03:35:39;101771.72;;;8.10;83.42
818;BME280;391;51.052;6.954;2023-04-09T03:37:45;101768.97;;;8.07;83.59
818;BME280;391;51.052;6.954;2023-04-09T03:39:52;101767.34;;;8.09;83.58
818;BME280;391;51.052;6.954;2023-04-09T03:41:58;101777.00;;;8.12;83.08
818;BME280;391;51.052;6.954;2023-04-09T03:44:07;101767.19;;;8.06;83.13
818;BME280;391;51.052;6.954;2023-04-09T03:46:34;101763.34;;;7.99;82.78
818;BME280;391;51.052;6.954;2023-04-09T03:48:41;101762.31;;;7.81;83.07
818;BME280;391;51.052;6.954;2023-04-09T03:50:45;101752.19;;;7.86;82.87
818;BME280;391;51.052;6.954;2023-04-09T03:52:55;101765.56;;;7.77;82.75
818;BME280;391;51.052;6.954;2023-04-09T03:54:59;101743.38;;;7.53;82.73
818;BME280;391;51.052;6.954;2023-04-09T03:57:04;101761.66;;;7.55;83.05
818;BME280;391;51.052;6.954;2023-04-09T03:59:11;101763.16;;;7.51;82.97
818;BME280;391;51.052;6.954;2023-04-09T04:01:18;101766.22;;;7.59;82.95
818;BME280;391;51.052;6.954;2023-04-09T04:03:28;101706.66;;;7.31;83.05
818;BME280;391;51.052;6.954;2023-04-09T04:05:51;101772.00;;;7.69;82.87
818;BME280;391;51.052;6.954;2023-04-09T04:07:55;101768.59;;;7.70;82.78
818;BME280;391;51.052;6.954;2023-04-09T04:10:03;101774.34;;;7.65;82.55
818;BME280;391;51.052;6.954;2023-04-09T04:12:08;101764.75;;;7.64;82.54
818;BME280;391;51.052;6.954;2023-04-09T04:14:25;101775.88;;;7.61;82.72
818;BME280;391;51.052;6.954;2023-04-09T04:16:36;101765.94;;;7.54;82.60
818;BME280;391;51.052;6.954;2023-04-09T04:18:40;101765.94;;;7.54;82.55
818;BME280;391;51.052;6.954;2023-04-09T04:20:43;101762.72;;;7.58;82.55
818;BME280;391;51.052;6.954;2023-04-09T04:22:48;101770.34;;;7.55;82.44
818;BME280;391;51.052;6.954;2023-04-09T04:24:52;101758.25;;;7.56;82.34
818;BME280;391;51.052;6.954;2023-04-09T04:26:57;101761.75;;;7.56;82.22
818;BME280;391;51.052;6.954;2023-04-09T04:29:07;101753.31;;;7.60;82.14
818;BME280;391;51.052;6.954;2023-04-09T04:31:37;101635.00;;;6.87;82.20
818;BME280;391;51.052;6.954;2023-04-09T04:33:41;101763.44;;;7.56;82.24
818;BME280;391;51.052;6.954;2023-04-09T04:35:48;101762.09;;;7.62;82.11
818;BME280;391;51.052;6.954;2023-04-09T04:38:09;101756.19;;;7.65;81.82
818;BME280;391;51.052;6.954;2023-04-09T04:40:14;101758.78;;;7.65;81.86
818;BME280;391;51.052;6.954;2023-04-09T04:42:17;101763.06;;;7.64;81.53
818;BME280;391;51.052;6.954;2023-04-09T04:44:23;101753.66;;;7.66;81.43
818;BME280;391;51.052;6.954;2023-04-09T04:46:38;101763.22;;;7.67;81.54
818;BME280;391;51.052;6.954;2023-04-09T04:48:41;101764.94;;;7.67;81.35
818;BME280;391;51.052;6.954;2023-04-09T04:50:45;101770.28;;;7.70;81.30
818;BME280;391;51.052;6.954;2023-04-09T04:52:48;101760.56;;;7.66;81.13
818;BME280;391;51.052;6.954;2023-04-09T04:54:53;101767.19;;;7.61;81.03
818;BME280;391;51.052;6.954;2023-04-09T04:56:58;101756.91;;;7.47;80.99
818;BME280;391;51.052;6.954;2023-04-09T04:59:14;101767.03;;;7.43;81.05
818;BME280;391;51.052;6.954;2023-04-09T05:01:31;101771.50;;;7.31;81.14
818;BME280;391;51.052;6.954;2023-04-09T05:03:36;101774.47;;;7.37;81.33
818;BME280;391;51.052;6.954;2023-04-09T05:05:58;101766.88;;;7.40;81.04
818;BME280;391;51.052;6.954;2023-04-09T05:08:08;101774.72;;;7.41;81.07
818;BME280;391;51.052;6.954;2023-04-09T05:10:12;101771.50;;;7.45;80.78
818;BME280;391;51.052;6.954;2023-04-09T05:12:17;101769.69;;;7.44;80.75
818;BME280;391;51.052;6.954;2023-04-09T05:14:25;101772.66;;;7.51;80.78
818;BME280;391;51.052;6.954;2023-04-09T05:16:28;101772.94;;;7.55;80.87
818;BME280;391;51.052;6.954;2023-04-09T05:18:38;101776.78;;;7.62;80.52
818;BME280;391;51.052;6.954;2023-04-09T05:20:42;101770.75;;;7.63;80.30
818;BME280;391;51.052;6.954;2023-04-09T05:22:45;101781.34;;;7.66;80.29
818;BME280;391;51.052;6.954;2023-04-09T05:24:49;101782.47;;;7.71;80.42
818;BME280;391;51.052;6.954;2023-04-09T05:26:54;101778.34;;;7.74;80.04
818;BME280;391;51.052;6.954;2023-04-09T05:28:59;101776.72;;;7.76;80.33
818;BME280;391;51.052;6.954;2023-04-09T05:31:03;101785.75;;;7.83;79.82
818;BME280;391;51.052;6.954;2023-04-09T05:33:08;101779.78;;;7.84;79.87
818;BME280;391;51.052;6.954;2023-04-09T05:35:13;101785.19;;;7.88;79.67
818;BME280;391;51.052;6.954;2023-04-09T05:37:18;101784.50;;;7.91;79.56
818;BME280;391;51.052;6.954;2023-04-09T05:39:25;101788.06;;;7.93;79.67
818;BME280;391;51.052;6.954;2023-04-09T05:41:29;101781.34;;;7.96;79.34
818;BME280;391;51.052;6.954;2023-04-09T05:43:52;101782.16;;;7.95;79.28
818;BME280;391;51.052;6.954;2023-04-09T05:45:56;101784.13;;;7.99;79.07
818;BME280;391;51.052;6.954;2023-04-09T05:48:00;101783.59;;;7.90;79.03
818;BME280;391;51.052;6.954;2023-04-09T05:50:05;101780.50;;;7.81;79.17
818;BME280;391;51.052;6.954;2023-04-09T05:52:10;101781.41;;;7.67;79.15
818;BME280;391;51.052;6.954;2023-04-09T05:54:15;101794.09;;;7.63;79.26
818;BME280;391;51.052;6.954;2023-04-09T05:56:19;101793.75;;;7.57;79.68
818;BME280;391;51.052;6.954;2023-04-09T05:58:30;101787.31;;;7.65;79.54
818;BME280;391;51.052;6.954;2023-04-09T06:00:34;101790.44;;;7.74;79.25
818;BME280;391;51.052;6.954;2023-04-09T06:02:37;101779.16;;;7.73;79.25
818;BME280;391;51.052;6.954;2023-04-09T06:04:40;101785.81;;;7.68;79.19
818;BME280;391;51.052;6.954;2023-04-09T06:06:45;101773.09;;;7.58;79.08
818;BME280;391;51.052;6.954;2023-04-09T06:08:50;101782.06;;;7.49;79.17
818;BME280;391;51.052;6.954;2023-04-09T06:10:53;101781.94;;;7.47;79.41
818;BME280;391;51.052;6.954;2023-04-09T06:12:57;101783.47;;;7.58;79.30
818;BME280;391;51.052;6.954;2023-04-09T06:15:00;101759.50;;;7.47;79.07
818;BME280;391;51.052;6.954;2023-04-09T06:17:04;101776.50;;;7.57;79.14
818;BME280;391;51.052;6.954;2023-04-09T06:19:08;101780.25;;;7.62;79.22
818;BME280;391;51.052;6.954;2023-04-09T06:21:13;101784.78;;;7.66;79.24
818;BME280;391;51.052;6.954;2023-04-09T06:23:17;101786.31;;;7.63;78.93
818;BME280;391;51.052;6.954;2023-04-09T06:25:22;101787.50;;;7.68;78.97
818;BME280;391;51.052;6.954;2023-04-09T06:27:25;101781.91;;;7.76;79.23
818;BME280;391;51.052;6.954;2023-04-09T06:29:28;101783.16;;;7.83;78.80
818;BME280;391;51.052;6.954;2023-04-09T06:31:32;101775.31;;;7.81;78.56
818;BME280;391;51.052;6.954;2023-04-09T06:33:35;101786.94;;;7.88;78.83
818;BME280;391;51.052;6.954;2023-04-09T06:35:39;101780.19;;;7.91;78.56
818;BME280;391;51.052;6.954;2023-04-09T06:37:42;101791.91;;;7.99;78.37
818;BME280;391;51.052;6.954;2023-04-09T06:39:45;101795.91;;;8.09;78.29
818;BME280;391;51.052;6.954;2023-04-09T06:42:03;101789.41;;;8.17;77.66
818;BME280;391;51.052;6.954;2023-04-09T06:44:13;101795.78;;;8.22;77.90
818;BME280;391;51.052;6.954;2023-04-09T06:46:17;101797.22;;;8.32;77.90
818;BME280;391;51.052;6.954;2023-04-09T06:48:22;101789.66;;;8.36;77.46
818;BME280;391;51.052;6.954;2023-04-09T06:50:25;101798.03;;;8.47;77.20
818;BME280;391;51.052;6.954;2023-04-09T06:52:28;101804.56;;;8.55;77.10
818;BME280;391;51.052;6.954;2023-04-09T06:54:32;101803.00;;;8.59;76.38
818;BME280;391;51.052;6.954;2023-04-09T06:56:35;101800.72;;;8.65;76.63
818;BME280;391;51.052;6.954;2023-04-09T06:58:40;101800.16;;;8.70;76.16
818;BME280;391;51.052;6.954;2023-04-09T07:00:43;101808.19;;;8.75;76.00
818;BME280;391;51.052;6.954;2023-04-09T07:02:46;101801.63;;;8.81;75.43
818;BME280;391;51.052;6.954;2023-04-09T07:04:50;101811.47;;;8.87;75.56
818;BME280;391;51.052;6.954;2023-04-09T07:06:54;101820.88;;;8.85;74.97
818;BME280;391;51.052;6.954;2023-04-09T07:09:00;101816.00;;;8.91;74.91
818;BME280;391;51.052;6.954;2023-04-09T07:11:03;101838.13;;;8.99;74.69
818;BME280;391;51.052;6.954;2023-04-09T07:13:07;101816.09;;;9.09;74.33
818;BME280;391;51.052;6.954;2023-04-09T07:15:11;101819.66;;;9.11;74.34
818;BME280;391;51.052;6.954;2023-04-09T07:17:15;101818.91;;;9.13;73.85
818;BME280;391;51.052;6.954;2023-04-09T07:19:19;101824.56;;;9.22;73.38
818;BME280;391;51.052;6.954;2023-04-09T07:21:22;101822.16;;;9.25;73.62
818;BME280;391;51.052;6.954;2023-04-09T07:23:25;101819.28;;;9.37;72.91
818;BME280;391;51.052;6.954;2023-04-09T07:25:29;101828.94;;;9.39;73.13
818;BME280;391;51.052;6.954;2023-04-09T07:27:32;101825.44;;;9.39;72.54
818;BME280;391;51.052;6.954;2023-04-09T07:29:35;101828.59;;;9.49;72.87
818;BME280;391;51.052;6.954;2023-04-09T07:31:40;101832.25;;;9.53;72.50
818;BME280;391;51.052;6.954;2023-04-09T07:33:45;101823.16;;;9.45;71.02
818;BME280;391;51.052;6.954;2023-04-09T07:35:49;101825.59;;;9.42;71.48
818;BME280;391;51.052;6.954;2023-04-09T07:37:54;101830.16;;;9.46;71.07
818;BME280;391;51.052;6.954;2023-04-09T07:39:58;101839.31;;;9.55;70.86
818;BME280;391;51.052;6.954;2023-04-09T07:42:02;101839.63;;;9.62;70.65
818;BME280;391;51.052;6.954;2023-04-09T07:44:05;101836.81;;;9.57;69.90
818;BME280;391;51.052;6.954;2023-04-09T07:46:09;101833.31;;;9.56;69.65
818;BME280;391;51.052;6.954;2023-04-09T07:48:14;101834.34;;;9.60;69.35
818;BME280;391;51.052;6.954;2023-04-09T07:50:17;101835.56;;;9.67;69.54
818;BME280;391;51.052;6.954;2023-04-09T07:52:21;101839.56;;;9.78;69.73
818;BME280;391;51.052;6.954;2023-04-09T07:54:24;101832.72;;;9.80;69.28
818;BME280;391;51.052;6.954;2023-04-09T07:56:28;101837.41;;;9.87;69.47
818;BME280;391;51.052;6.954;2023-04-09T07:58:31;101836.91;;;9.94;69.66
818;BME280;391;51.052;6.954;2023-04-09T08:00:35;101837.94;;;9.97;68.55
818;BME280;391;51.052;6.954;2023-04-09T08:02:38;101828.19;;;9.93;68.60
818;BME280;391;51.052;6.954;2023-04-09T08:04:43;101836.59;;;10.05;68.68
818;BME280;391;51.052;6.954;2023-04-09T08:06:47;101831.88;;;10.15;68.73
818;BME280;391;51.052;6.954;2023-04-09T08:08:52;101834.78;;;10.21;68.34
818;BME280;391;51.052;6.954;2023-04-09T08:10:56;101846.84;;;10.19;68.01
818;BME280;391;51.052;6.954;2023-04-09T08:12:59;101838.34;;;10.23;67.86
818;BME280;391;51.052;6.954;2023-04-09T08:15:03;101837.59;;;10.25;68.16
818;BME280;391;51.052;6.954;2023-04-09T08:17:06;101834.09;;;10.25;68.03
818;BME280;391;51.052;6.954;2023-04-09T08:19:10;101820.25;;;10.26;68.34
818;BME280;391;51.052;6.954;2023-04-09T08:21:15;101838.63;;;10.46;68.17
818;BME280;391;51.052;6.954;2023-04-09T08:23:18;101837.06;;;10.32;68.25
818;BME280;391;51.052;6.954;2023-04-09T08:25:22;101837.16;;;10.53;68.02
818;BME280;391;51.052;6.954;2023-04-09T08:27:25;101830.47;;;10.58;66.93
818;BME280;391;51.052;6.954;2023-04-09T08:29:29;101834.31;;;10.66;66.15
818;BME280;391;51.052;6.954;2023-04-09T08:31:33;101830.88;;;10.67;66.00
818;BME280;391;51.052;6.954;2023-04-09T08:33:37;101827.19;;;10.81;65.61
818;BME280;391;51.052;6.954;2023-04-09T08:35:40;101833.50;;;10.86;64.99
818;BME280;391;51.052;6.954;2023-04-09T08:37:45;101831.84;;;10.88;64.36
818;BME280;391;51.052;6.954;2023-04-09T08:39:49;101834.53;;;10.90;64.24
818;BME280;391;51.052;6.954;2023-04-09T08:41:57;101837.41;;;10.96;64.12
818;BME280;391;51.052;6.954;2023-04-09T08:44:01;101839.28;;;10.98;63.68
818;BME280;391;51.052;6.954;2023-04-09T08:46:04;101836.53;;;10.95;63.32
818;BME280;391;51.052;6.954;2023-04-09T08:48:08;101843.44;;;10.95;62.83
818;BME280;391;51.052;6.954;2023-04-09T08:50:12;101843.59;;;10.98;62.71
818;BME280;391;51.052;6.954;2023-04-09T08:52:16;101827.72;;;11.32;64.80
818;BME280;391;51.052;6.954;2023-04-09T08:54:24;101846.84;;;11.51;62.59
818;BME280;391;51.052;6.954;2023-04-09T08:56:28;101812.34;;;11.39;61.68
818;BME280;391;51.052;6.954;2023-04-09T08:58:31;101838.75;;;11.66;61.56
818;BME280;391;51.052;6.954;2023-04-09T09:00:35;101845.56;;;11.62;60.72
818;BME280;391;51.052;6.954;2023-04-09T09:03:00;101832.88;;;11.70;60.42
818;BME280;391;51.052;6.954;2023-04-09T09:05:05;101825.09;;;11.72;59.76
818;BME280;391;51.052;6.954;2023-04-09T09:07:08;101828.28;;;11.85;59.66
818;BME280;391;51.052;6.954;2023-04-09T09:09:13;101826.81;;;11.92;59.76
818;BME280;391;51.052;6.954;2023-04-09T09:11:25;101829.34;;;11.90;58.88
818;BME280;391;51.052;6.954;2023-04-09T09:13:29;101831.13;;;11.91;58.36
818;BME280;391;51.052;6.954;2023-04-09T09:15:32;101833.50;;;12.06;57.86
818;BME280;391;51.052;6.954;2023-04-09T09:17:52;101828.56;;;12.13;57.44
818;BME280;391;51.052;6.954;2023-04-09T09:19:56;101823.44;;;12.16;56.87
818;BME280;391;51.052;6.954;2023-04-09T09:22:01;101823.88;;;12.27;57.05
818;BME280;391;51.052;6.954;2023-04-09T09:24:15;101828.53;;;12.34;56.42
818;BME280;391;51.052;6.954;2023-04-09T09:26:21;101809.56;;;12.17;56.47
818;BME280;391;51.052;6.954;2023-04-09T09:28:33;101827.09;;;12.42;55.90
818;BME280;391;51.052;6.954;2023-04-09T09:30:38;101809.47;;;12.38;55.50
818;BME280;391;51.052;6.954;2023-04-09T09:32:41;101823.56;;;12.42;55.45
818;BME280;391;51.052;6.954;2023-04-09T09:34:56;101827.19;;;12.45;55.40
818;BME280;391;51.052;6.954;2023-04-09T09:37:00;101821.81;;;12.41;55.51
818;BME280;391;51.052;6.954;2023-04-09T09:39:03;101816.38;;;12.58;55.76
818;BME280;391;51.052;6.954;2023-04-09T09:41:18;101814.28;;;12.72;55.75
818;BME280;391;51.052;6.954;2023-04-09T09:43:21;101803.44;;;12.85;55.23
818;BME280;391;51.052;6.954;2023-04-09T09:45:26;101817.44;;;13.09;53.66
818;BME280;391;51.052;6.954;2023-04-09T09:47:33;101813.84;;;13.07;51.75
818;BME280;391;51.052;6.954;2023-04-09T09:49:37;101816.66;;;13.12;52.30
818;BME280;391;51.052;6.954;2023-04-09T09:51:41;101818.75;;;13.22;51.44
818;BME280;391;51.052;6.954;2023-04-09T09:53:46;101817.09;;;13.24;50.97
818;BME280;391;51.052;6.954;2023-04-09T09:55:56;101793.53;;;13.24;51.35
818;BME280;391;51.052;6.954;2023-04-09T09:58:07;101806.19;;;12.90;50.53
818;BME280;391;51.052;6.954;2023-04-09T10:00:13;101805.56;;;12.95;50.41
818;BME280;391;51.052;6.954;2023-04-09T10:02:22;101754.81;;;12.92;50.49
818;BME280;391;51.052;6.954;2023-04-09T10:04:28;101803.13;;;13.49;50.39
818;BME280;391;51.052;6.954;2023-04-09T10:06:35;101806.56;;;13.73;49.60
818;BME280;391;51.052;6.954;2023-04-09T10:08:41;101804.28;;;13.84;49.02
818;BME280;391;51.052;6.954;2023-04-09T10:10:45;101801.03;;;13.91;49.79
818;BME280;391;51.052;6.954;2023-04-09T10:12:49;101803.31;;;13.80;48.30
818;BME280;391;51.052;6.954;2023-04-09T10:14:54;101782.06;;;13.46;48.63
818;BME280;391;51.052;6.954;2023-04-09T10:16:58;101792.66;;;13.50;49.05
818;BME280;391;51.052;6.954;2023-04-09T10:19:03;101748.34;;;13.31;48.72
818;BME280;391;51.052;6.954;2023-04-09T10:21:15;101784.97;;;13.82;48.43
818;BME280;391;51.052;6.954;2023-04-09T10:23:26;101788.66;;;13.87;48.38
818;BME280;391;51.052;6.954;2023-04-09T10:25:33;101795.91;;;13.95;48.17
818;BME280;391;51.052;6.954;2023-04-09T10:27:36;101794.41;;;13.75;47.89
818;BME280;391;51.052;6.954;2023-04-09T10:29:44;101794.25;;;13.70;47.65
818;BME280;391;51.052;6.954;2023-04-09T10:31:50;101794.34;;;14.00;47.86
818;BME280;391;51.052;6.954;2023-04-09T10:34:03;101792.72;;;14.32;48.22
818;BME280;391;51.052;6.954;2023-04-09T10:36:10;101788.50;;;14.36;47.24
818;BME280;391;51.052;6.954;2023-04-09T10:38:14;101792.53;;;14.26;46.89
818;BME280;391;51.052;6.954;2023-04-09T10:40:18;101773.22;;;14.24;46.63
818;BME280;391;51.052;6.954;2023-04-09T10:42:25;101778.41;;;14.49;47.22
818;BME280;391;51.052;6.954;2023-04-09T10:44:31;101788.72;;;14.73;47.93
818;BME280;391;51.052;6.954;2023-04-09T10:46:36;101797.63;;;14.78;46.55
818;BME280;391;51.052;6.954;2023-04-09T10:48:42;101782.69;;;14.75;46.07
818;BME280;391;51.052;6.954;2023-04-09T10:50:49;101785.38;;;14.49;46.08
818;BME280;391;51.052;6.954;2023-04-09T10:52:53;101776.81;;;14.54;46.74
818;BME280;391;51.052;6.954;2023-04-09T10:54:57;101775.78;;;14.79;46.82
818;BME280;391;51.052;6.954;2023-04-09T10:57:14;101782.84;;;15.13;46.21
818;BME280;391;51.052;6.954;2023-04-09T10:59:19;101773.28;;;15.15;45.64
818;BME280;391;51.052;6.954;2023-04-09T11:01:22;101788.31;;;14.89;45.91
818;BME280;391;51.052;6.954;2023-04-09T11:03:28;101780.72;;;14.68;46.79
818;BME280;391;51.052;6.954;2023-04-09T11:05:33;101778.66;;;14.58;47.53
818;BME280;391;51.052;6.954;2023-04-09T11:07:43;101773.31;;;14.55;47.05
818;BME280;391;51.052;6.954;2023-04-09T11:09:47;101772.75;;;14.36;46.77
818;BME280;391;51.052;6.954;2023-04-09T11:11:51;101768.22;;;14.31;47.09
818;BME280;391;51.052;6.954;2023-04-09T11:13:57;101713.25;;;14.06;47.65
818;BME280;391;51.052;6.954;2023-04-09T11:16:02;101758.94;;;14.43;47.92
818;BME280;391;51.052;6.954;2023-04-09T11:18:08;101762.81;;;14.55;47.16
818;BME280;391;51.052;6.954;2023-04-09T11:20:18;101758.38;;;14.53;46.78
818;BME280;391;51.052;6.954;2023-04-09T11:22:21;101754.09;;;14.55;47.32
818;BME280;391;51.052;6.954;2023-04-09T11:24:39;101646.81;;;14.07;47.37
818;BME280;391;51.052;6.954;2023-04-09T11:26:42;101745.75;;;14.69;47.22
818;BME280;391;51.052;6.954;2023-04-09T11:28:47;101748.13;;;14.60;47.08
818;BME280;391;51.052;6.954;2023-04-09T11:30:50;101741.53;;;14.45;46.96
818;BME280;391;51.052;6.954;2023-04-09T11:32:54;101732.19;;;14.54;47.04
818;BME280;391;51.052;6.954;2023-04-09T11:34:58;101750.66;;;14.89;46.52
818;BME280;391;51.052;6.954;2023-04-09T11:37:03;101739.59;;;15.00;45.22
818;BME280;391;51.052;6.954;2023-04-09T11:39:10;101751.22;;;15.08;44.15